createdAt,value
2023-04-20T00:04:50.763Z,4.15
2023-04-20T00:10:54.179Z,3.92
2023-04-20T00:16:59.334Z,4.07
2023-04-20T00:23:02.841Z,3.95
2023-04-20T00:29:06.443Z,3.58
2023-04-20T00:35:11.711Z,3.90
2023-04-20T00:41:15.553Z,3.95
2023-04-20T00:47:19.077Z,3.53
2023-04-20T00:53:23.987Z,3.90
2023-04-20T00:59:27.559Z,3.97
2023-04-20T01:05:31.013Z,3.70
2023-04-20T01:11:36.180Z,3.35
2023-04-20T01:17:40.352Z,3.60
2023-04-20T01:23:45.580Z,3.70
2023-04-20T01:29:49.072Z,3.40
2023-04-20T01:35:53.969Z,3.75
2023-04-20T01:41:58.845Z,3.92
2023-04-20T01:48:03.071Z,3.97
2023-04-20T01:54:06.870Z,3.80
2023-04-20T02:00:12.978Z,3.63
2023-04-20T02:06:16.399Z,3.97
2023-04-20T02:12:19.882Z,3.33
2023-04-20T02:18:24.836Z,3.88
2023-04-20T02:24:28.254Z,3.65
2023-04-20T02:30:31.810Z,3.08
2023-04-20T02:36:36.762Z,3.40
2023-04-20T02:42:40.273Z,3.40
2023-04-20T02:48:43.660Z,3.65
2023-04-20T02:54:48.758Z,3.10
2023-04-20T03:00:52.269Z,3.53
2023-04-20T03:06:55.922Z,3.53
2023-04-20T03:13:00.701Z,3.40
2023-04-20T03:19:04.785Z,2.70
2023-04-20T03:25:09.924Z,3.20
2023-04-20T03:31:14.787Z,3.10
2023-04-20T03:37:18.511Z,3.20
2023-04-20T03:43:21.899Z,3.72
2023-04-20T03:49:26.806Z,4.93
2023-04-20T03:55:30.213Z,7.72
2023-04-20T04:01:33.848Z,4.13
2023-04-20T04:07:38.772Z,3.03
2023-04-20T04:13:42.234Z,4.40
2023-04-20T04:19:45.765Z,3.60
2023-04-20T04:25:51.286Z,3.30
2023-04-20T04:31:54.916Z,3.42
2023-04-20T04:37:58.689Z,3.80
2023-04-20T04:44:03.618Z,3.28
2023-04-20T04:50:07.477Z,3.33
2023-04-20T04:56:11.478Z,2.72
2023-04-20T05:02:16.398Z,3.20
2023-04-20T05:08:20.124Z,3.17
2023-04-20T05:14:23.508Z,3.38
2023-04-20T05:20:28.398Z,2.97
2023-04-20T05:26:31.781Z,3.13
2023-04-20T05:32:35.255Z,2.85
2023-04-20T05:38:40.280Z,2.95
2023-04-20T05:44:44.713Z,3.00
2023-04-20T05:50:48.239Z,3.25
2023-04-20T05:56:53.282Z,3.35
2023-04-20T06:02:56.845Z,3.17
2023-04-20T06:09:00.840Z,3.08
2023-04-20T06:15:06.808Z,3.35
2023-04-20T06:21:11.579Z,4.25
2023-04-20T06:27:16.151Z,5.70
2023-04-20T06:33:20.934Z,3.63
2023-04-20T06:39:24.585Z,3.28
2023-04-20T06:45:28.053Z,3.17
2023-04-20T06:51:33.683Z,3.40
2023-04-20T06:57:38.573Z,3.15
2023-04-20T07:03:42.319Z,3.90
2023-04-20T07:09:47.420Z,3.20
2023-04-20T07:15:50.818Z,2.90
2023-04-20T07:21:54.503Z,2.83
2023-04-20T07:27:59.258Z,2.58
2023-04-20T07:34:02.649Z,2.50
2023-04-20T07:40:07.040Z,2.53
2023-04-20T07:46:12.345Z,2.67
2023-04-20T07:52:17.237Z,2.50
2023-04-20T07:58:21.690Z,2.97
2023-04-20T08:04:26.595Z,3.10
2023-04-20T08:10:30.180Z,2.63
2023-04-20T08:16:33.696Z,2.60
2023-04-20T08:22:38.534Z,2.10
2023-04-20T08:28:43.936Z,3.50
2023-04-20T08:34:47.325Z,3.08
2023-04-20T08:40:52.415Z,3.20
2023-04-20T08:46:55.992Z,2.65
2023-04-20T08:52:59.951Z,3.03
2023-04-20T08:59:05.487Z,3.10
2023-04-20T09:05:09.555Z,3.03
2023-04-20T09:11:23.338Z,3.55
2023-04-20T09:17:35.435Z,3.50
2023-04-20T09:23:39.122Z,4.03
2023-04-20T09:29:42.909Z,3.42
2023-04-20T09:35:48.052Z,3.90
2023-04-20T09:41:52.289Z,3.50
2023-04-20T09:47:56.959Z,4.00
2023-04-20T09:54:03.050Z,3.60
2023-04-20T10:00:08.027Z,4.10
2023-04-20T10:06:20.116Z,3.70
2023-04-20T10:12:24.846Z,3.97
2023-04-20T10:18:28.390Z,4.18
2023-04-20T10:24:32.226Z,4.03
2023-04-20T10:30:37.496Z,3.50
2023-04-20T10:36:41.743Z,3.83
2023-04-20T10:42:45.867Z,4.10
2023-04-20T10:48:58.724Z,3.72
2023-04-20T10:55:02.194Z,4.20
2023-04-20T11:01:08.512Z,3.63
2023-04-20T11:07:14.278Z,3.70
2023-04-20T11:13:25.848Z,4.30
2023-04-20T11:19:29.955Z,3.88
2023-04-20T11:25:34.799Z,4.13
2023-04-20T11:31:38.465Z,4.47
2023-04-20T11:37:48.925Z,4.63
2023-04-20T11:43:54.679Z,4.65
2023-04-20T11:49:58.256Z,4.65
2023-04-20T11:56:02.318Z,4.65
2023-04-20T12:02:07.155Z,5.95
2023-04-20T12:08:10.644Z,5.68
2023-04-20T12:14:14.120Z,5.70
2023-04-20T12:20:18.871Z,5.78
2023-04-20T12:26:27.072Z,5.80
2023-04-20T12:32:38.221Z,7.18
2023-04-20T12:38:43.436Z,5.20
2023-04-20T12:44:49.644Z,5.40
2023-04-20T12:50:53.192Z,5.47
2023-04-20T12:56:58.944Z,5.05
2023-04-20T13:03:02.589Z,5.10
2023-04-20T13:09:07.289Z,5.63
2023-04-20T13:15:13.697Z,5.00
2023-04-20T13:21:17.491Z,5.32
2023-04-20T13:27:20.891Z,5.05
2023-04-20T13:33:25.981Z,5.07
2023-04-20T13:39:29.591Z,5.50
2023-04-20T13:45:33.085Z,5.43
2023-04-20T13:51:38.080Z,5.50
2023-04-20T13:57:41.828Z,6.40
2023-04-20T14:03:45.944Z,6.22
2023-04-20T14:09:50.984Z,9.00
2023-04-20T14:15:54.877Z,8.13
2023-04-20T14:21:58.309Z,6.72
2023-04-20T14:28:03.105Z,6.60
2023-04-20T14:34:06.548Z,6.38
2023-04-20T14:40:10.615Z,7.10
2023-04-20T14:46:15.634Z,5.68
2023-04-20T14:52:19.057Z,5.95
2023-04-20T14:58:22.536Z,5.20
2023-04-20T15:04:27.534Z,5.10
2023-04-20T15:10:31.338Z,5.45
2023-04-20T15:16:35.035Z,5.53
2023-04-20T15:22:40.143Z,5.97
2023-04-20T15:28:43.672Z,5.90
2023-04-20T15:34:47.087Z,5.68
2023-04-20T15:40:53.866Z,5.22
2023-04-20T15:46:58.360Z,6.25
2023-04-20T15:53:01.782Z,5.90
2023-04-20T15:59:06.800Z,5.60
2023-04-20T16:05:10.413Z,4.88
2023-04-20T16:11:13.887Z,4.68
2023-04-20T16:17:18.655Z,4.75
2023-04-20T16:23:22.282Z,4.85
2023-04-20T16:29:25.738Z,5.97
2023-04-20T16:35:30.672Z,5.57
2023-04-20T16:41:34.084Z,6.40
2023-04-20T16:47:38.200Z,7.40
2023-04-20T16:53:43.004Z,6.75
2023-04-20T16:59:47.018Z,6.80
2023-04-20T17:05:51.102Z,5.82
2023-04-20T17:11:56.560Z,5.03
2023-04-20T17:18:00.113Z,4.20
2023-04-20T17:24:03.578Z,4.50
2023-04-20T17:30:09.087Z,4.82
2023-04-20T17:36:12.893Z,4.53
2023-04-20T17:42:16.330Z,3.70
2023-04-20T17:48:21.352Z,4.80
2023-04-20T17:54:24.815Z,4.68
2023-04-20T18:00:28.430Z,5.00
2023-04-20T18:06:33.864Z,5.18
2023-04-20T18:12:37.637Z,5.63
2023-04-20T18:18:41.124Z,6.30
2023-04-20T18:24:46.521Z,6.05
2023-04-20T18:30:49.993Z,7.07
2023-04-20T18:36:53.661Z,7.00
2023-04-20T18:42:58.418Z,8.60
2023-04-20T18:49:01.903Z,8.38
2023-04-20T18:55:05.457Z,9.13
2023-04-20T19:01:10.918Z,8.68
2023-04-20T19:07:14.504Z,9.02
2023-04-20T19:13:17.937Z,8.60
2023-04-20T19:19:22.746Z,7.85
2023-04-20T19:25:26.397Z,8.80
2023-04-20T19:31:36.624Z,9.68
2023-04-20T19:37:41.910Z,9.13
2023-04-20T19:43:45.326Z,10.30
2023-04-20T19:49:48.848Z,9.63
2023-04-20T19:55:53.643Z,9.48
2023-04-20T20:01:57.339Z,10.32
2023-04-20T20:08:00.785Z,9.02
2023-04-20T20:14:05.609Z,9.27
2023-04-20T20:20:09.645Z,9.60
2023-04-20T20:26:13.116Z,8.90
2023-04-20T20:32:17.905Z,9.60
2023-04-20T20:38:22.673Z,9.50
2023-04-20T20:44:28.050Z,9.30
2023-04-20T20:50:32.885Z,9.95
2023-04-20T20:56:36.552Z,9.90
2023-04-20T21:02:40.094Z,10.07
2023-04-20T21:08:45.426Z,10.02
2023-04-20T21:14:51.533Z,9.38
2023-04-20T21:20:55.121Z,9.70
2023-04-20T21:26:59.862Z,9.82
2023-04-20T21:33:03.353Z,9.95
2023-04-20T21:39:06.800Z,10.00
2023-04-20T21:45:12.337Z,11.13
2023-04-20T21:51:16.921Z,10.10
2023-04-20T21:57:20.540Z,10.50
2023-04-20T22:03:26.323Z,10.98
2023-04-20T22:09:30.204Z,10.85
2023-04-20T22:15:33.900Z,10.73
2023-04-20T22:21:38.663Z,10.23
2023-04-20T22:27:42.140Z,10.85
2023-04-20T22:33:45.563Z,10.85
2023-04-20T22:39:51.403Z,10.93
2023-04-20T22:45:55.089Z,11.52
2023-04-20T22:51:58.464Z,10.30
2023-04-20T22:58:03.279Z,9.68
2023-04-20T23:04:07.101Z,10.32
2023-04-20T23:10:11.815Z,11.23
2023-04-20T23:16:16.834Z,10.93
2023-04-20T23:22:20.266Z,11.85
2023-04-20T23:28:23.694Z,11.65
2023-04-20T23:34:28.470Z,11.30
2023-04-20T23:40:31.879Z,11.70
2023-04-20T23:46:35.462Z,11.32
2023-04-20T23:52:41.105Z,11.50
2023-04-20T23:58:44.739Z,11.85
